sensor_id;sensor_type;location;lat;lon;timestamp;P1;durP1;ratioP1;P2;durP2;ratioP2
52972;SDS011;38837;48.916;2.336;2024-02-21T00:01:39;6.75;;;3.22;;
52972;SDS011;38837;48.916;2.336;2024-02-21T00:03:41;7.60;;;2.90;;
52972;SDS011;38837;48.916;2.336;2024-02-21T00:05:43;8.40;;;2.97;;
52972;SDS011;38837;48.916;2.336;2024-02-21T00:07:45;9.27;;;3.72;;
52972;SDS011;38837;48.916;2.336;2024-02-21T00:09:47;7.00;;;2.92;;
52972;SDS011;38837;48.916;2.336;2024-02-21T00:11:50;9.55;;;3.35;;
52972;SDS011;38837;48.916;2.336;2024-02-21T00:13:52;7.20;;;2.95;;
52972;SDS011;38837;48.916;2.336;2024-02-21T00:15:54;7.85;;;3.08;;
52972;SDS011;38837;48.916;2.336;2024-02-21T00:17:57;7.78;;;3.40;;
52972;SDS011;38837;48.916;2.336;2024-02-21T00:20:00;8.15;;;3.05;;
52972;SDS011;38837;48.916;2.336;2024-02-21T00:22:02;9.02;;;3.20;;
52972;SDS011;38837;48.916;2.336;2024-02-21T00:24:04;7.07;;;3.00;;
52972;SDS011;38837;48.916;2.336;2024-02-21T00:26:06;8.18;;;2.78;;
52972;SDS011;38837;48.916;2.336;2024-02-21T00:28:08;7.95;;;2.67;;
52972;SDS011;38837;48.916;2.336;2024-02-21T00:30:11;6.60;;;2.90;;
52972;SDS011;38837;48.916;2.336;2024-02-21T00:32:13;8.75;;;3.13;;
52972;SDS011;38837;48.916;2.336;2024-02-21T00:34:15;8.48;;;2.95;;
52972;SDS011;38837;48.916;2.336;2024-02-21T00:36:17;5.47;;;2.92;;
52972;SDS011;38837;48.916;2.336;2024-02-21T00:38:19;6.78;;;3.00;;
52972;SDS011;38837;48.916;2.336;2024-02-21T00:40:22;4.82;;;2.72;;
52972;SDS011;38837;48.916;2.336;2024-02-21T00:42:24;7.53;;;3.47;;
52972;SDS011;38837;48.916;2.336;2024-02-21T00:44:26;6.55;;;2.55;;
52972;SDS011;38837;48.916;2.336;2024-02-21T00:46:28;9.68;;;3.17;;
52972;SDS011;38837;48.916;2.336;2024-02-21T00:48:30;8.15;;;3.08;;
52972;SDS011;38837;48.916;2.336;2024-02-21T00:50:32;9.57;;;3.00;;
52972;SDS011;38837;48.916;2.336;2024-02-21T00:52:34;8.38;;;3.15;;
52972;SDS011;38837;48.916;2.336;2024-02-21T00:54:36;8.48;;;2.90;;
52972;SDS011;38837;48.916;2.336;2024-02-21T00:56:51;5.95;;;2.70;;
52972;SDS011;38837;48.916;2.336;2024-02-21T00:58:53;6.70;;;3.30;;
52972;SDS011;38837;48.916;2.336;2024-02-21T01:00:55;10.68;;;2.95;;
52972;SDS011;38837;48.916;2.336;2024-02-21T01:02:56;7.90;;;2.90;;
52972;SDS011;38837;48.916;2.336;2024-02-21T01:04:58;9.10;;;3.22;;
52972;SDS011;38837;48.916;2.336;2024-02-21T01:07:01;9.43;;;2.92;;
52972;SDS011;38837;48.916;2.336;2024-02-21T01:09:02;5.80;;;2.88;;
52972;SDS011;38837;48.916;2.336;2024-02-21T01:11:05;6.30;;;2.65;;
52972;SDS011;38837;48.916;2.336;2024-02-21T01:13:07;6.25;;;3.10;;
52972;SDS011;38837;48.916;2.336;2024-02-21T01:15:09;6.50;;;2.92;;
52972;SDS011;38837;48.916;2.336;2024-02-21T01:17:12;8.60;;;3.20;;
52972;SDS011;38837;48.916;2.336;2024-02-21T01:19:14;7.57;;;3.20;;
52972;SDS011;38837;48.916;2.336;2024-02-21T01:21:16;8.40;;;3.03;;
52972;SDS011;38837;48.916;2.336;2024-02-21T01:23:18;10.00;;;3.38;;
52972;SDS011;38837;48.916;2.336;2024-02-21T01:25:20;11.93;;;3.88;;
52972;SDS011;38837;48.916;2.336;2024-02-21T01:27:22;6.68;;;3.10;;
52972;SDS011;38837;48.916;2.336;2024-02-21T01:29:24;7.78;;;3.08;;
52972;SDS011;38837;48.916;2.336;2024-02-21T01:31:25;5.80;;;2.90;;
52972;SDS011;38837;48.916;2.336;2024-02-21T01:33:27;7.80;;;3.13;;
52972;SDS011;38837;48.916;2.336;2024-02-21T01:35:31;7.82;;;3.17;;
52972;SDS011;38837;48.916;2.336;2024-02-21T01:37:33;7.50;;;2.97;;
52972;SDS011;38837;48.916;2.336;2024-02-21T01:39:35;6.13;;;2.97;;
52972;SDS011;38837;48.916;2.336;2024-02-21T01:41:38;6.97;;;3.08;;
52972;SDS011;38837;48.916;2.336;2024-02-21T01:43:40;10.32;;;3.65;;
52972;SDS011;38837;48.916;2.336;2024-02-21T01:45:42;8.82;;;3.33;;
52972;SDS011;38837;48.916;2.336;2024-02-21T01:47:43;6.28;;;3.25;;
52972;SDS011;38837;48.916;2.336;2024-02-21T01:49:45;10.02;;;3.42;;
52972;SDS011;38837;48.916;2.336;2024-02-21T01:51:47;6.93;;;2.97;;
52972;SDS011;38837;48.916;2.336;2024-02-21T01:53:50;6.32;;;2.88;;
52972;SDS011;38837;48.916;2.336;2024-02-21T01:55:53;11.65;;;3.35;;
52972;SDS011;38837;48.916;2.336;2024-02-21T01:57:55;8.20;;;3.60;;
52972;SDS011;38837;48.916;2.336;2024-02-21T01:59:57;8.77;;;3.33;;
52972;SDS011;38837;48.916;2.336;2024-02-21T02:01:59;6.07;;;3.33;;
52972;SDS011;38837;48.916;2.336;2024-02-21T02:04:02;6.55;;;2.88;;
52972;SDS011;38837;48.916;2.336;2024-02-21T02:06:06;9.73;;;3.30;;
52972;SDS011;38837;48.916;2.336;2024-02-21T02:08:08;8.35;;;3.17;;
52972;SDS011;38837;48.916;2.336;2024-02-21T02:10:10;6.82;;;3.20;;
52972;SDS011;38837;48.916;2.336;2024-02-21T02:12:12;7.97;;;3.22;;
52972;SDS011;38837;48.916;2.336;2024-02-21T02:14:14;10.10;;;3.83;;
52972;SDS011;38837;48.916;2.336;2024-02-21T02:16:16;8.90;;;2.83;;
52972;SDS011;38837;48.916;2.336;2024-02-21T02:18:19;7.38;;;3.58;;
52972;SDS011;38837;48.916;2.336;2024-02-21T02:20:21;6.25;;;3.20;;
52972;SDS011;38837;48.916;2.336;2024-02-21T02:22:26;7.82;;;3.28;;
52972;SDS011;38837;48.916;2.336;2024-02-21T02:24:30;9.68;;;3.80;;
52972;SDS011;38837;48.916;2.336;2024-02-21T02:26:32;7.90;;;3.80;;
52972;SDS011;38837;48.916;2.336;2024-02-21T02:28:34;7.65;;;3.58;;
52972;SDS011;38837;48.916;2.336;2024-02-21T02:30:37;8.27;;;3.03;;
52972;SDS011;38837;48.916;2.336;2024-02-21T02:32:39;8.48;;;3.17;;
52972;SDS011;38837;48.916;2.336;2024-02-21T02:34:41;9.45;;;3.67;;
52972;SDS011;38837;48.916;2.336;2024-02-21T02:36:43;6.65;;;3.40;;
52972;SDS011;38837;48.916;2.336;2024-02-21T02:38:44;8.50;;;3.70;;
52972;SDS011;38837;48.916;2.336;2024-02-21T02:40:46;6.70;;;3.00;;
52972;SDS011;38837;48.916;2.336;2024-02-21T02:42:48;7.68;;;3.15;;
52972;SDS011;38837;48.916;2.336;2024-02-21T02:44:50;8.50;;;3.40;;
52972;SDS011;38837;48.916;2.336;2024-02-21T02:46:52;7.90;;;3.30;;
52972;SDS011;38837;48.916;2.336;2024-02-21T02:48:54;7.05;;;3.25;;
52972;SDS011;38837;48.916;2.336;2024-02-21T02:50:57;5.97;;;3.05;;
52972;SDS011;38837;48.916;2.336;2024-02-21T02:52:59;5.65;;;3.22;;
52972;SDS011;38837;48.916;2.336;2024-02-21T02:55:01;7.15;;;3.50;;
52972;SDS011;38837;48.916;2.336;2024-02-21T02:57:03;6.85;;;3.33;;
52972;SDS011;38837;48.916;2.336;2024-02-21T02:59:07;7.90;;;3.20;;
52972;SDS011;38837;48.916;2.336;2024-02-21T03:01:09;7.13;;;3.30;;
52972;SDS011;38837;48.916;2.336;2024-02-21T03:03:11;8.75;;;3.38;;
52972;SDS011;38837;48.916;2.336;2024-02-21T03:05:14;9.00;;;3.60;;
52972;SDS011;38837;48.916;2.336;2024-02-21T03:09:19;7.75;;;3.42;;
52972;SDS011;38837;48.916;2.336;2024-02-21T03:11:21;7.72;;;3.63;;
52972;SDS011;38837;48.916;2.336;2024-02-21T03:13:30;7.15;;;3.42;;
52972;SDS011;38837;48.916;2.336;2024-02-21T03:15:32;8.10;;;2.78;;
52972;SDS011;38837;48.916;2.336;2024-02-21T03:17:34;6.05;;;2.88;;
52972;SDS011;38837;48.916;2.336;2024-02-21T03:19:36;11.93;;;3.25;;
52972;SDS011;38837;48.916;2.336;2024-02-21T03:21:38;5.22;;;3.00;;
52972;SDS011;38837;48.916;2.336;2024-02-21T03:23:39;12.73;;;3.88;;
52972;SDS011;38837;48.916;2.336;2024-02-21T03:25:41;11.45;;;4.03;;
52972;SDS011;38837;48.916;2.336;2024-02-21T03:27:46;5.90;;;3.33;;
52972;SDS011;38837;48.916;2.336;2024-02-21T03:29:48;8.43;;;3.22;;
52972;SDS011;38837;48.916;2.336;2024-02-21T03:31:50;9.38;;;3.30;;
52972;SDS011;38837;48.916;2.336;2024-02-21T03:33:52;7.68;;;3.47;;
52972;SDS011;38837;48.916;2.336;2024-02-21T03:35:54;6.93;;;3.20;;
52972;SDS011;38837;48.916;2.336;2024-02-21T03:37:56;8.48;;;3.10;;
52972;SDS011;38837;48.916;2.336;2024-02-21T03:39:58;7.05;;;3.55;;
52972;SDS011;38837;48.916;2.336;2024-02-21T03:41:59;12.70;;;3.45;;
52972;SDS011;38837;48.916;2.336;2024-02-21T03:44:07;7.30;;;3.25;;
52972;SDS011;38837;48.916;2.336;2024-02-21T03:46:09;6.55;;;2.90;;
52972;SDS011;38837;48.916;2.336;2024-02-21T03:48:11;6.68;;;3.13;;
52972;SDS011;38837;48.916;2.336;2024-02-21T03:50:13;7.15;;;3.42;;
52972;SDS011;38837;48.916;2.336;2024-02-21T03:52:15;6.50;;;3.30;;
52972;SDS011;38837;48.916;2.336;2024-02-21T03:54:18;7.05;;;2.85;;
52972;SDS011;38837;48.916;2.336;2024-02-21T03:56:20;7.03;;;3.45;;
52972;SDS011;38837;48.916;2.336;2024-02-21T03:58:22;9.05;;;3.05;;
52972;SDS011;38837;48.916;2.336;2024-02-21T04:00:24;5.20;;;3.30;;
52972;SDS011;38837;48.916;2.336;2024-02-21T04:02:27;6.20;;;3.28;;
52972;SDS011;38837;48.916;2.336;2024-02-21T04:04:29;7.38;;;3.35;;
52972;SDS011;38837;48.916;2.336;2024-02-21T04:06:31;8.15;;;3.38;;
52972;SDS011;38837;48.916;2.336;2024-02-21T04:08:33;6.55;;;3.10;;
52972;SDS011;38837;48.916;2.336;2024-02-21T04:10:35;5.45;;;3.00;;
52972;SDS011;38837;48.916;2.336;2024-02-21T04:12:37;5.88;;;2.92;;
52972;SDS011;38837;48.916;2.336;2024-02-21T04:14:39;7.22;;;3.00;;
52972;SDS011;38837;48.916;2.336;2024-02-21T04:16:45;7.03;;;3.17;;
52972;SDS011;38837;48.916;2.336;2024-02-21T04:18:46;6.65;;;3.08;;
52972;SDS011;38837;48.916;2.336;2024-02-21T04:20:50;6.00;;;2.92;;
52972;SDS011;38837;48.916;2.336;2024-02-21T04:22:53;6.63;;;2.95;;
52972;SDS011;38837;48.916;2.336;2024-02-21T04:24:54;5.68;;;2.97;;
52972;SDS011;38837;48.916;2.336;2024-02-21T04:26:56;5.75;;;2.83;;
52972;SDS011;38837;48.916;2.336;2024-02-21T04:28:58;5.07;;;3.03;;
52972;SDS011;38837;48.916;2.336;2024-02-21T04:31:00;6.78;;;2.72;;
52972;SDS011;38837;48.916;2.336;2024-02-21T04:33:02;6.50;;;3.17;;
52972;SDS011;38837;48.916;2.336;2024-02-21T04:35:04;5.82;;;3.30;;
52972;SDS011;38837;48.916;2.336;2024-02-21T04:37:06;7.10;;;2.80;;
52972;SDS011;38837;48.916;2.336;2024-02-21T04:39:10;7.82;;;3.30;;
52972;SDS011;38837;48.916;2.336;2024-02-21T04:41:13;6.73;;;3.13;;
52972;SDS011;38837;48.916;2.336;2024-02-21T04:43:15;7.20;;;2.92;;
52972;SDS011;38837;48.916;2.336;2024-02-21T04:45:17;8.95;;;3.30;;
52972;SDS011;38837;48.916;2.336;2024-02-21T04:47:19;9.10;;;3.35;;
52972;SDS011;38837;48.916;2.336;2024-02-21T04:49:24;10.25;;;3.53;;
52972;SDS011;38837;48.916;2.336;2024-02-21T04:51:26;5.55;;;3.38;;
52972;SDS011;38837;48.916;2.336;2024-02-21T04:53:28;6.72;;;3.25;;
52972;SDS011;38837;48.916;2.336;2024-02-21T04:55:30;6.95;;;3.13;;
52972;SDS011;38837;48.916;2.336;2024-02-21T04:57:32;5.38;;;3.15;;
52972;SDS011;38837;48.916;2.336;2024-02-21T04:59:34;7.63;;;3.53;;
52972;SDS011;38837;48.916;2.336;2024-02-21T05:01:36;8.57;;;3.58;;
52972;SDS011;38837;48.916;2.336;2024-02-21T05:03:38;9.10;;;3.20;;
52972;SDS011;38837;48.916;2.336;2024-02-21T05:05:40;6.03;;;2.78;;
52972;SDS011;38837;48.916;2.336;2024-02-21T05:07:42;6.55;;;3.00;;
52972;SDS011;38837;48.916;2.336;2024-02-21T05:09:45;8.57;;;3.17;;
52972;SDS011;38837;48.916;2.336;2024-02-21T05:11:47;6.60;;;2.70;;
52972;SDS011;38837;48.916;2.336;2024-02-21T05:13:49;7.35;;;3.25;;
52972;SDS011;38837;48.916;2.336;2024-02-21T05:15:52;5.40;;;2.70;;
52972;SDS011;38837;48.916;2.336;2024-02-21T05:17:53;4.45;;;2.78;;
52972;SDS011;38837;48.916;2.336;2024-02-21T05:19:56;5.07;;;2.97;;
52972;SDS011;38837;48.916;2.336;2024-02-21T05:21:58;6.90;;;3.13;;
52972;SDS011;38837;48.916;2.336;2024-02-21T05:24:00;8.90;;;3.55;;
52972;SDS011;38837;48.916;2.336;2024-02-21T05:26:02;6.03;;;3.30;;
52972;SDS011;38837;48.916;2.336;2024-02-21T05:28:04;6.50;;;3.05;;
52972;SDS011;38837;48.916;2.336;2024-02-21T05:30:08;4.13;;;2.73;;
52972;SDS011;38837;48.916;2.336;2024-02-21T05:32:11;8.88;;;3.78;;
52972;SDS011;38837;48.916;2.336;2024-02-21T05:34:13;7.57;;;3.28;;
52972;SDS011;38837;48.916;2.336;2024-02-21T05:36:15;7.15;;;3.33;;
52972;SDS011;38837;48.916;2.336;2024-02-21T05:38:17;8.30;;;3.08;;
52972;SDS011;38837;48.916;2.336;2024-02-21T05:40:19;6.45;;;3.08;;
52972;SDS011;38837;48.916;2.336;2024-02-21T05:42:21;4.78;;;2.92;;
52972;SDS011;38837;48.916;2.336;2024-02-21T05:44:23;5.68;;;2.85;;
52972;SDS011;38837;48.916;2.336;2024-02-21T05:46:24;9.15;;;3.42;;
52972;SDS011;38837;48.916;2.336;2024-02-21T05:48:26;6.40;;;3.03;;
52972;SDS011;38837;48.916;2.336;2024-02-21T05:50:28;4.50;;;2.83;;
52972;SDS011;38837;48.916;2.336;2024-02-21T05:52:30;5.70;;;2.75;;
52972;SDS011;38837;48.916;2.336;2024-02-21T05:54:32;7.25;;;2.95;;
52972;SDS011;38837;48.916;2.336;2024-02-21T05:56:34;5.28;;;3.05;;
52972;SDS011;38837;48.916;2.336;2024-02-21T05:58:36;4.95;;;3.00;;
52972;SDS011;38837;48.916;2.336;2024-02-21T06:00:39;6.85;;;3.47;;
52972;SDS011;38837;48.916;2.336;2024-02-21T06:02:41;4.70;;;2.80;;
52972;SDS011;38837;48.916;2.336;2024-02-21T06:04:43;5.95;;;2.65;;
52972;SDS011;38837;48.916;2.336;2024-02-21T06:06:46;6.18;;;3.00;;
52972;SDS011;38837;48.916;2.336;2024-02-21T06:08:48;5.57;;;2.90;;
52972;SDS011;38837;48.916;2.336;2024-02-21T06:10:50;5.97;;;3.08;;
52972;SDS011;38837;48.916;2.336;2024-02-21T06:12:55;7.75;;;2.97;;
52972;SDS011;38837;48.916;2.336;2024-02-21T06:14:57;4.43;;;2.60;;
52972;SDS011;38837;48.916;2.336;2024-02-21T06:16:59;5.55;;;3.05;;
52972;SDS011;38837;48.916;2.336;2024-02-21T06:19:01;5.05;;;2.50;;
52972;SDS011;38837;48.916;2.336;2024-02-21T06:21:07;5.90;;;3.05;;
52972;SDS011;38837;48.916;2.336;2024-02-21T06:23:09;7.65;;;3.13;;
52972;SDS011;38837;48.916;2.336;2024-02-21T06:25:11;6.35;;;3.10;;
52972;SDS011;38837;48.916;2.336;2024-02-21T06:27:13;4.97;;;2.75;;
52972;SDS011;38837;48.916;2.336;2024-02-21T06:31:19;6.07;;;3.00;;
52972;SDS011;38837;48.916;2.336;2024-02-21T06:33:21;7.25;;;3.33;;
52972;SDS011;38837;48.916;2.336;2024-02-21T06:35:26;6.05;;;3.10;;
52972;SDS011;38837;48.916;2.336;2024-02-21T06:37:28;8.05;;;3.00;;
52972;SDS011;38837;48.916;2.336;2024-02-21T06:39:30;7.68;;;3.17;;
52972;SDS011;38837;48.916;2.336;2024-02-21T06:41:32;9.65;;;3.30;;
52972;SDS011;38837;48.916;2.336;2024-02-21T06:43:35;6.53;;;3.00;;
52972;SDS011;38837;48.916;2.336;2024-02-21T06:45:40;7.15;;;3.08;;
52972;SDS011;38837;48.916;2.336;2024-02-21T06:47:42;6.57;;;2.92;;
52972;SDS011;38837;48.916;2.336;2024-02-21T06:49:48;8.98;;;3.08;;
52972;SDS011;38837;48.916;2.336;2024-02-21T06:51:51;6.72;;;3.20;;
52972;SDS011;38837;48.916;2.336;2024-02-21T06:53:53;5.05;;;2.80;;
52972;SDS011;38837;48.916;2.336;2024-02-21T06:55:55;6.10;;;2.92;;
52972;SDS011;38837;48.916;2.336;2024-02-21T06:57:57;7.90;;;3.15;;
52972;SDS011;38837;48.916;2.336;2024-02-21T06:59:59;7.20;;;3.35;;
52972;SDS011;38837;48.916;2.336;2024-02-21T07:02:01;5.47;;;2.70;;
52972;SDS011;38837;48.916;2.336;2024-02-21T07:04:03;5.45;;;2.83;;
52972;SDS011;38837;48.916;2.336;2024-02-21T07:06:05;6.90;;;2.75;;
52972;SDS011;38837;48.916;2.336;2024-02-21T07:08:07;4.95;;;2.83;;
52972;SDS011;38837;48.916;2.336;2024-02-21T07:10:09;7.40;;;3.08;;
52972;SDS011;38837;48.916;2.336;2024-02-21T07:12:12;5.65;;;2.70;;
52972;SDS011;38837;48.916;2.336;2024-02-21T07:14:14;6.00;;;2.85;;
52972;SDS011;38837;48.916;2.336;2024-02-21T07:16:17;5.13;;;3.03;;
52972;SDS011;38837;48.916;2.336;2024-02-21T07:18:19;6.60;;;2.95;;
52972;SDS011;38837;48.916;2.336;2024-02-21T07:20:22;5.32;;;2.97;;
52972;SDS011;38837;48.916;2.336;2024-02-21T07:22:24;5.40;;;2.85;;
52972;SDS011;38837;48.916;2.336;2024-02-21T07:24:26;7.18;;;2.85;;
52972;SDS011;38837;48.916;2.336;2024-02-21T07:26:28;6.18;;;2.80;;
52972;SDS011;38837;48.916;2.336;2024-02-21T07:28:30;6.43;;;2.78;;
52972;SDS011;38837;48.916;2.336;2024-02-21T07:30:32;4.25;;;2.42;;
52972;SDS011;38837;48.916;2.336;2024-02-21T07:32:34;5.30;;;2.88;;
52972;SDS011;38837;48.916;2.336;2024-02-21T07:34:36;4.20;;;2.50;;
52972;SDS011;38837;48.916;2.336;2024-02-21T07:36:38;3.85;;;2.38;;
52972;SDS011;38837;48.916;2.336;2024-02-21T07:38:40;6.30;;;2.42;;
52972;SDS011;38837;48.916;2.336;2024-02-21T07:40:43;5.25;;;2.53;;
52972;SDS011;38837;48.916;2.336;2024-02-21T07:42:46;6.82;;;2.75;;
52972;SDS011;38837;48.916;2.336;2024-02-21T07:44:52;5.20;;;3.10;;
52972;SDS011;38837;48.916;2.336;2024-02-21T07:46:54;6.05;;;2.75;;
52972;SDS011;38837;48.916;2.336;2024-02-21T07:49:00;4.40;;;2.25;;
52972;SDS011;38837;48.916;2.336;2024-02-21T07:51:02;5.37;;;2.53;;
52972;SDS011;38837;48.916;2.336;2024-02-21T07:53:04;5.95;;;2.80;;
52972;SDS011;38837;48.916;2.336;2024-02-21T07:55:06;4.97;;;2.85;;
52972;SDS011;38837;48.916;2.336;2024-02-21T07:57:08;6.47;;;3.15;;
52972;SDS011;38837;48.916;2.336;2024-02-21T07:59:10;8.45;;;2.55;;
52972;SDS011;38837;48.916;2.336;2024-02-21T08:03:21;5.53;;;2.45;;
52972;SDS011;38837;48.916;2.336;2024-02-21T08:05:24;5.18;;;2.42;;
52972;SDS011;38837;48.916;2.336;2024-02-21T08:07:26;4.72;;;2.28;;
52972;SDS011;38837;48.916;2.336;2024-02-21T08:09:30;7.35;;;2.67;;
52972;SDS011;38837;48.916;2.336;2024-02-21T08:11:32;6.68;;;2.80;;
52972;SDS011;38837;48.916;2.336;2024-02-21T08:13:34;6.05;;;2.28;;
52972;SDS011;38837;48.916;2.336;2024-02-21T08:15:36;5.80;;;2.50;;
52972;SDS011;38837;48.916;2.336;2024-02-21T08:17:40;8.10;;;2.78;;
52972;SDS011;38837;48.916;2.336;2024-02-21T08:19:42;8.40;;;2.60;;
52972;SDS011;38837;48.916;2.336;2024-02-21T08:21:44;5.32;;;2.55;;
52972;SDS011;38837;48.916;2.336;2024-02-21T08:23:48;5.97;;;2.78;;
52972;SDS011;38837;48.916;2.336;2024-02-21T08:25:52;5.30;;;2.58;;
52972;SDS011;38837;48.916;2.336;2024-02-21T08:27:57;7.18;;;2.47;;
52972;SDS011;38837;48.916;2.336;2024-02-21T08:30:00;8.50;;;2.67;;
52972;SDS011;38837;48.916;2.336;2024-02-21T08:32:02;3.53;;;2.30;;
52972;SDS011;38837;48.916;2.336;2024-02-21T08:34:04;4.85;;;1.83;;
52972;SDS011;38837;48.916;2.336;2024-02-21T08:36:06;4.45;;;2.17;;
52972;SDS011;38837;48.916;2.336;2024-02-21T08:38:09;5.28;;;2.95;;
52972;SDS011;38837;48.916;2.336;2024-02-21T08:40:11;5.32;;;2.63;;
52972;SDS011;38837;48.916;2.336;2024-02-21T08:42:13;4.95;;;2.45;;
52972;SDS011;38837;48.916;2.336;2024-02-21T08:44:15;8.55;;;2.63;;
52972;SDS011;38837;48.916;2.336;2024-02-21T08:46:17;7.63;;;2.45;;
52972;SDS011;38837;48.916;2.336;2024-02-21T08:48:20;5.43;;;2.38;;
52972;SDS011;38837;48.916;2.336;2024-02-21T08:50:22;4.90;;;2.38;;
52972;SDS011;38837;48.916;2.336;2024-02-21T08:52:29;5.22;;;2.35;;
52972;SDS011;38837;48.916;2.336;2024-02-21T08:54:32;4.45;;;2.15;;
52972;SDS011;38837;48.916;2.336;2024-02-21T08:56:35;5.28;;;2.30;;
52972;SDS011;38837;48.916;2.336;2024-02-21T08:58:37;4.60;;;2.75;;
52972;SDS011;38837;48.916;2.336;2024-02-21T09:02:43;6.82;;;2.63;;
52972;SDS011;38837;48.916;2.336;2024-02-21T09:04:45;9.27;;;3.00;;
52972;SDS011;38837;48.916;2.336;2024-02-21T09:06:47;5.97;;;2.60;;
52972;SDS011;38837;48.916;2.336;2024-02-21T09:08:49;7.57;;;3.03;;
52972;SDS011;38837;48.916;2.336;2024-02-21T09:10:51;3.78;;;2.47;;
52972;SDS011;38837;48.916;2.336;2024-02-21T09:12:53;5.75;;;2.85;;
52972;SDS011;38837;48.916;2.336;2024-02-21T09:14:55;14.55;;;2.72;;
52972;SDS011;38837;48.916;2.336;2024-02-21T09:16:57;9.85;;;3.80;;
52972;SDS011;38837;48.916;2.336;2024-02-21T09:18:59;6.95;;;3.00;;
52972;SDS011;38837;48.916;2.336;2024-02-21T09:21:02;13.55;;;3.22;;
52972;SDS011;38837;48.916;2.336;2024-02-21T09:23:04;9.80;;;3.38;;
52972;SDS011;38837;48.916;2.336;2024-02-21T09:25:06;9.35;;;3.63;;
52972;SDS011;38837;48.916;2.336;2024-02-21T09:27:08;17.05;;;3.22;;
52972;SDS011;38837;48.916;2.336;2024-02-21T09:29:10;11.18;;;2.97;;
52972;SDS011;38837;48.916;2.336;2024-02-21T09:31:12;7.85;;;3.05;;
52972;SDS011;38837;48.916;2.336;2024-02-21T09:33:14;9.25;;;3.25;;
52972;SDS011;38837;48.916;2.336;2024-02-21T09:35:32;11.32;;;2.90;;
52972;SDS011;38837;48.916;2.336;2024-02-21T09:37:35;12.63;;;2.78;;
52972;SDS011;38837;48.916;2.336;2024-02-21T09:39:37;19.02;;;3.38;;
52972;SDS011;38837;48.916;2.336;2024-02-21T09:41:40;26.67;;;4.13;;
52972;SDS011;38837;48.916;2.336;2024-02-21T09:43:53;28.58;;;3.63;;
52972;SDS011;38837;48.916;2.336;2024-02-21T09:45:57;26.27;;;4.07;;
52972;SDS011;38837;48.916;2.336;2024-02-21T09:50:43;20.58;;;3.30;;
52972;SDS011;38837;48.916;2.336;2024-02-21T09:52:45;19.13;;;3.65;;
52972;SDS011;38837;48.916;2.336;2024-02-21T09:54:48;20.77;;;2.92;;
52972;SDS011;38837;48.916;2.336;2024-02-21T09:56:50;20.15;;;2.97;;
52972;SDS011;38837;48.916;2.336;2024-02-21T09:58:52;10.63;;;3.15;;
52972;SDS011;38837;48.916;2.336;2024-02-21T10:00:54;13.52;;;3.22;;
52972;SDS011;38837;48.916;2.336;2024-02-21T10:02:56;9.95;;;2.80;;
52972;SDS011;38837;48.916;2.336;2024-02-21T10:04:57;10.63;;;2.60;;
52972;SDS011;38837;48.916;2.336;2024-02-21T10:07:00;7.82;;;2.70;;
52972;SDS011;38837;48.916;2.336;2024-02-21T10:09:02;7.15;;;3.58;;
52972;SDS011;38837;48.916;2.336;2024-02-21T10:11:05;8.55;;;3.00;;
52972;SDS011;38837;48.916;2.336;2024-02-21T10:13:07;10.60;;;2.90;;
52972;SDS011;38837;48.916;2.336;2024-02-21T10:15:09;13.77;;;3.58;;
52972;SDS011;38837;48.916;2.336;2024-02-21T10:17:16;6.82;;;2.70;;
52972;SDS011;38837;48.916;2.336;2024-02-21T10:19:20;10.68;;;3.70;;
52972;SDS011;38837;48.916;2.336;2024-02-21T10:21:22;12.68;;;4.00;;
52972;SDS011;38837;48.916;2.336;2024-02-21T10:23:24;7.22;;;3.38;;
52972;SDS011;38837;48.916;2.336;2024-02-21T10:25:26;8.85;;;3.08;;
52972;SDS011;38837;48.916;2.336;2024-02-21T10:27:28;8.50;;;2.72;;
52972;SDS011;38837;48.916;2.336;2024-02-21T10:29:30;7.10;;;2.65;;
52972;SDS011;38837;48.916;2.336;2024-02-21T10:31:32;7.85;;;2.92;;
52972;SDS011;38837;48.916;2.336;2024-02-21T10:33:34;4.95;;;2.60;;
52972;SDS011;38837;48.916;2.336;2024-02-21T10:35:36;11.75;;;3.40;;
52972;SDS011;38837;48.916;2.336;2024-02-21T10:37:38;7.57;;;2.65;;
52972;SDS011;38837;48.916;2.336;2024-02-21T10:39:41;6.00;;;2.75;;
52972;SDS011;38837;48.916;2.336;2024-02-21T10:41:44;10.30;;;2.95;;
52972;SDS011;38837;48.916;2.336;2024-02-21T10:43:55;8.18;;;3.15;;
52972;SDS011;38837;48.916;2.336;2024-02-21T10:45:58;6.93;;;3.00;;
52972;SDS011;38837;48.916;2.336;2024-02-21T10:48:14;10.73;;;2.92;;
52972;SDS011;38837;48.916;2.336;2024-02-21T10:50:17;6.00;;;2.85;;
52972;SDS011;38837;48.916;2.336;2024-02-21T10:54:51;7.78;;;2.50;;
52972;SDS011;38837;48.916;2.336;2024-02-21T10:56:58;7.22;;;2.50;;
52972;SDS011;38837;48.916;2.336;2024-02-21T10:59:06;11.00;;;3.45;;
52972;SDS011;38837;48.916;2.336;2024-02-21T11:01:09;5.95;;;3.20;;
52972;SDS011;38837;48.916;2.336;2024-02-21T11:03:19;8.68;;;3.10;;
52972;SDS011;38837;48.916;2.336;2024-02-21T11:05:21;7.13;;;2.50;;
52972;SDS011;38837;48.916;2.336;2024-02-21T11:07:23;5.53;;;2.60;;
52972;SDS011;38837;48.916;2.336;2024-02-21T11:09:29;7.00;;;2.78;;
52972;SDS011;38837;48.916;2.336;2024-02-21T11:11:35;10.50;;;2.33;;
52972;SDS011;38837;48.916;2.336;2024-02-21T11:13:41;7.13;;;2.65;;
52972;SDS011;38837;48.916;2.336;2024-02-21T11:15:44;7.80;;;2.90;;
52972;SDS011;38837;48.916;2.336;2024-02-21T11:17:55;6.03;;;2.30;;
52972;SDS011;38837;48.916;2.336;2024-02-21T11:20:12;6.88;;;2.75;;
52972;SDS011;38837;48.916;2.336;2024-02-21T11:22:18;25.05;;;4.50;;
52972;SDS011;38837;48.916;2.336;2024-02-21T11:24:32;12.57;;;3.90;;
52972;SDS011;38837;48.916;2.336;2024-02-21T11:26:36;20.30;;;4.55;;
52972;SDS011;38837;48.916;2.336;2024-02-21T11:30:40;34.75;;;6.75;;
52972;SDS011;38837;48.916;2.336;2024-02-21T11:34:56;29.15;;;6.25;;
52972;SDS011;38837;48.916;2.336;2024-02-21T11:37:04;25.25;;;6.30;;
52972;SDS011;38837;48.916;2.336;2024-02-21T11:39:20;28.58;;;6.13;;
52972;SDS011;38837;48.916;2.336;2024-02-21T11:41:24;22.90;;;5.28;;
52972;SDS011;38837;48.916;2.336;2024-02-21T11:43:26;26.90;;;4.95;;
52972;SDS011;38837;48.916;2.336;2024-02-21T11:45:28;16.65;;;5.20;;
52972;SDS011;38837;48.916;2.336;2024-02-21T11:47:30;24.30;;;5.47;;
52972;SDS011;38837;48.916;2.336;2024-02-21T11:49:36;10.73;;;4.05;;
52972;SDS011;38837;48.916;2.336;2024-02-21T11:51:40;14.82;;;4.10;;
52972;SDS011;38837;48.916;2.336;2024-02-21T11:53:42;10.25;;;4.35;;
52972;SDS011;38837;48.916;2.336;2024-02-21T11:55:57;13.95;;;4.28;;
52972;SDS011;38837;48.916;2.336;2024-02-21T11:58:00;12.90;;;4.75;;
52972;SDS011;38837;48.916;2.336;2024-02-21T12:00:14;18.17;;;4.93;;
52972;SDS011;38837;48.916;2.336;2024-02-21T12:02:18;16.90;;;5.18;;
52972;SDS011;38837;48.916;2.336;2024-02-21T12:04:20;12.18;;;4.13;;
52972;SDS011;38837;48.916;2.336;2024-02-21T12:06:25;13.02;;;4.40;;
52972;SDS011;38837;48.916;2.336;2024-02-21T12:08:27;11.63;;;3.80;;
52972;SDS011;38837;48.916;2.336;2024-02-21T12:10:30;9.88;;;3.30;;
52972;SDS011;38837;48.916;2.336;2024-02-21T12:12:32;13.35;;;3.97;;
52972;SDS011;38837;48.916;2.336;2024-02-21T12:14:37;5.20;;;3.35;;
52972;SDS011;38837;48.916;2.336;2024-02-21T12:16:39;8.48;;;3.63;;
52972;SDS011;38837;48.916;2.336;2024-02-21T12:18:41;10.18;;;3.28;;
52972;SDS011;38837;48.916;2.336;2024-02-21T12:20:43;9.75;;;3.45;;
52972;SDS011;38837;48.916;2.336;2024-02-21T12:22:49;10.02;;;3.35;;
52972;SDS011;38837;48.916;2.336;2024-02-21T12:24:51;8.60;;;3.20;;
52972;SDS011;38837;48.916;2.336;2024-02-21T12:26:53;11.15;;;3.40;;
52972;SDS011;38837;48.916;2.336;2024-02-21T12:28:56;10.95;;;3.55;;
52972;SDS011;38837;48.916;2.336;2024-02-21T12:30:58;12.25;;;3.15;;
52972;SDS011;38837;48.916;2.336;2024-02-21T12:32:59;7.97;;;3.42;;
52972;SDS011;38837;48.916;2.336;2024-02-21T12:35:03;9.73;;;3.90;;
52972;SDS011;38837;48.916;2.336;2024-02-21T12:37:05;10.05;;;3.60;;